sensor_id;sensor_type;location;lat;lon;timestamp;P1;durP1;ratioP1;P2;durP2;ratioP2
34805;SDS011;65084;42.196;25.326;2023-02-13T00:01:21;42.70;;;20.50;;
34805;SDS011;65084;42.196;25.326;2023-02-13T00:03:48;61.00;;;23.48;;
34805;SDS011;65084;42.196;25.326;2023-02-13T00:06:17;51.03;;;22.08;;
34805;SDS011;65084;42.196;25.326;2023-02-13T00:08:44;50.58;;;21.70;;
34805;SDS011;65084;42.196;25.326;2023-02-13T00:11:12;48.03;;;21.10;;
34805;SDS011;65084;42.196;25.326;2023-02-13T00:13:39;54.63;;;22.92;;
34805;SDS011;65084;42.196;25.326;2023-02-13T00:16:08;54.35;;;21.30;;
34805;SDS011;65084;42.196;25.326;2023-02-13T00:18:37;42.90;;;19.20;;
34805;SDS011;65084;42.196;25.326;2023-02-13T00:21:06;31.92;;;16.90;;
34805;SDS011;65084;42.196;25.326;2023-02-13T00:23:35;29.02;;;16.48;;
34805;SDS011;65084;42.196;25.326;2023-02-13T00:26:04;34.10;;;17.35;;
34805;SDS011;65084;42.196;25.326;2023-02-13T00:28:31;37.65;;;17.45;;
34805;SDS011;65084;42.196;25.326;2023-02-13T00:31:02;39.67;;;17.63;;
34805;SDS011;65084;42.196;25.326;2023-02-13T00:33:30;33.60;;;17.60;;
34805;SDS011;65084;42.196;25.326;2023-02-13T00:36:04;40.25;;;17.70;;
34805;SDS011;65084;42.196;25.326;2023-02-13T00:38:32;42.35;;;18.50;;
34805;SDS011;65084;42.196;25.326;2023-02-13T00:41:00;38.35;;;18.02;;
34805;SDS011;65084;42.196;25.326;2023-02-13T00:43:28;39.20;;;18.13;;
34805;SDS011;65084;42.196;25.326;2023-02-13T00:45:55;36.28;;;18.48;;
34805;SDS011;65084;42.196;25.326;2023-02-13T00:48:23;36.75;;;17.35;;
34805;SDS011;65084;42.196;25.326;2023-02-13T00:50:51;32.83;;;16.92;;
34805;SDS011;65084;42.196;25.326;2023-02-13T00:53:18;29.17;;;15.55;;
34805;SDS011;65084;42.196;25.326;2023-02-13T00:55:45;26.50;;;14.82;;
34805;SDS011;65084;42.196;25.326;2023-02-13T00:58:14;28.02;;;14.73;;
34805;SDS011;65084;42.196;25.326;2023-02-13T01:00:41;33.45;;;17.15;;
34805;SDS011;65084;42.196;25.326;2023-02-13T01:03:09;37.60;;;18.67;;
34805;SDS011;65084;42.196;25.326;2023-02-13T01:05:36;41.72;;;19.90;;
34805;SDS011;65084;42.196;25.326;2023-02-13T01:08:04;43.13;;;21.10;;
34805;SDS011;65084;42.196;25.326;2023-02-13T01:10:31;41.00;;;20.90;;
34805;SDS011;65084;42.196;25.326;2023-02-13T01:12:58;46.00;;;21.80;;
34805;SDS011;65084;42.196;25.326;2023-02-13T01:15:27;54.20;;;25.08;;
34805;SDS011;65084;42.196;25.326;2023-02-13T01:17:54;48.92;;;23.83;;
34805;SDS011;65084;42.196;25.326;2023-02-13T01:20:22;42.95;;;21.60;;
34805;SDS011;65084;42.196;25.326;2023-02-13T01:22:50;41.17;;;20.65;;
34805;SDS011;65084;42.196;25.326;2023-02-13T01:25:17;32.35;;;16.98;;
34805;SDS011;65084;42.196;25.326;2023-02-13T01:27:44;31.02;;;16.02;;
34805;SDS011;65084;42.196;25.326;2023-02-13T01:30:12;27.50;;;15.23;;
34805;SDS011;65084;42.196;25.326;2023-02-13T01:32:42;23.27;;;14.30;;
34805;SDS011;65084;42.196;25.326;2023-02-13T01:35:10;26.45;;;14.43;;
34805;SDS011;65084;42.196;25.326;2023-02-13T01:37:38;32.30;;;15.85;;
34805;SDS011;65084;42.196;25.326;2023-02-13T01:40:06;25.52;;;15.00;;
34805;SDS011;65084;42.196;25.326;2023-02-13T01:42:33;27.52;;;14.95;;
34805;SDS011;65084;42.196;25.326;2023-02-13T01:45:02;28.05;;;14.68;;
34805;SDS011;65084;42.196;25.326;2023-02-13T01:47:32;26.63;;;15.50;;
34805;SDS011;65084;42.196;25.326;2023-02-13T01:50:07;27.60;;;14.38;;
34805;SDS011;65084;42.196;25.326;2023-02-13T01:52:36;27.10;;;14.50;;
34805;SDS011;65084;42.196;25.326;2023-02-13T01:55:04;21.85;;;13.00;;
34805;SDS011;65084;42.196;25.326;2023-02-13T01:57:32;25.13;;;14.80;;
34805;SDS011;65084;42.196;25.326;2023-02-13T02:00:02;27.88;;;15.32;;
34805;SDS011;65084;42.196;25.326;2023-02-13T02:02:33;27.33;;;15.20;;
34805;SDS011;65084;42.196;25.326;2023-02-13T02:05:00;24.45;;;14.15;;
34805;SDS011;65084;42.196;25.326;2023-02-13T02:07:30;28.25;;;15.05;;
34805;SDS011;65084;42.196;25.326;2023-02-13T02:09:58;24.33;;;14.38;;
34805;SDS011;65084;42.196;25.326;2023-02-13T02:12:27;23.75;;;13.93;;
34805;SDS011;65084;42.196;25.326;2023-02-13T02:14:55;29.48;;;14.93;;
34805;SDS011;65084;42.196;25.326;2023-02-13T02:17:25;31.10;;;15.10;;
34805;SDS011;65084;42.196;25.326;2023-02-13T02:19:55;27.13;;;15.10;;
34805;SDS011;65084;42.196;25.326;2023-02-13T02:22:44;28.25;;;15.35;;
34805;SDS011;65084;42.196;25.326;2023-02-13T02:25:30;28.67;;;14.95;;
34805;SDS011;65084;42.196;25.326;2023-02-13T02:28:09;28.92;;;15.18;;
34805;SDS011;65084;42.196;25.326;2023-02-13T02:30:50;27.00;;;14.52;;
34805;SDS011;65084;42.196;25.326;2023-02-13T02:33:29;30.38;;;15.85;;
34805;SDS011;65084;42.196;25.326;2023-02-13T02:36:02;32.47;;;17.17;;
34805;SDS011;65084;42.196;25.326;2023-02-13T02:38:44;29.90;;;16.30;;
34805;SDS011;65084;42.196;25.326;2023-02-13T02:41:14;29.25;;;15.98;;
34805;SDS011;65084;42.196;25.326;2023-02-13T02:44:01;32.72;;;15.57;;
34805;SDS011;65084;42.196;25.326;2023-02-13T02:46:35;29.27;;;15.98;;
34805;SDS011;65084;42.196;25.326;2023-02-13T02:49:05;34.55;;;17.60;;
34805;SDS011;65084;42.196;25.326;2023-02-13T02:51:53;40.88;;;19.63;;
34805;SDS011;65084;42.196;25.326;2023-02-13T02:54:23;35.55;;;18.70;;
34805;SDS011;65084;42.196;25.326;2023-02-13T02:57:22;33.65;;;17.52;;
34805;SDS011;65084;42.196;25.326;2023-02-13T02:59:50;34.80;;;16.88;;
34805;SDS011;65084;42.196;25.326;2023-02-13T03:02:36;34.53;;;16.20;;
34805;SDS011;65084;42.196;25.326;2023-02-13T03:05:31;33.05;;;15.68;;
34805;SDS011;65084;42.196;25.326;2023-02-13T03:08:17;35.53;;;18.42;;
34805;SDS011;65084;42.196;25.326;2023-02-13T03:11:04;43.72;;;19.55;;
34805;SDS011;65084;42.196;25.326;2023-02-13T03:13:50;39.67;;;17.77;;
34805;SDS011;65084;42.196;25.326;2023-02-13T03:16:18;32.15;;;17.65;;
34805;SDS011;65084;42.196;25.326;2023-02-13T03:19:04;37.22;;;17.70;;
34805;SDS011;65084;42.196;25.326;2023-02-13T03:21:50;33.83;;;16.52;;
34805;SDS011;65084;42.196;25.326;2023-02-13T03:24:43;31.70;;;17.42;;
34805;SDS011;65084;42.196;25.326;2023-02-13T03:27:13;39.08;;;19.35;;
34805;SDS011;65084;42.196;25.326;2023-02-13T03:30:02;56.65;;;19.70;;
34805;SDS011;65084;42.196;25.326;2023-02-13T03:32:34;35.30;;;18.15;;
34805;SDS011;65084;42.196;25.326;2023-02-13T03:35:03;39.97;;;18.23;;
34805;SDS011;65084;42.196;25.326;2023-02-13T03:37:55;37.30;;;19.38;;
34805;SDS011;65084;42.196;25.326;2023-02-13T03:40:26;38.38;;;17.30;;
34805;SDS011;65084;42.196;25.326;2023-02-13T03:42:55;36.55;;;19.13;;
34805;SDS011;65084;42.196;25.326;2023-02-13T03:45:28;43.78;;;19.77;;
34805;SDS011;65084;42.196;25.326;2023-02-13T03:48:14;33.53;;;15.98;;
34805;SDS011;65084;42.196;25.326;2023-02-13T03:50:56;47.80;;;20.15;;
34805;SDS011;65084;42.196;25.326;2023-02-13T03:53:27;44.92;;;21.08;;
34805;SDS011;65084;42.196;25.326;2023-02-13T03:55:54;52.72;;;21.20;;
34805;SDS011;65084;42.196;25.326;2023-02-13T03:58:41;37.95;;;16.42;;
34805;SDS011;65084;42.196;25.326;2023-02-13T04:01:27;51.10;;;19.05;;
34805;SDS011;65084;42.196;25.326;2023-02-13T04:03:55;43.47;;;20.58;;
34805;SDS011;65084;42.196;25.326;2023-02-13T04:06:25;49.80;;;19.75;;
34805;SDS011;65084;42.196;25.326;2023-02-13T04:08:54;57.38;;;24.20;;
34805;SDS011;65084;42.196;25.326;2023-02-13T04:11:23;81.07;;;30.48;;
34805;SDS011;65084;42.196;25.326;2023-02-13T04:13:53;91.72;;;30.63;;
34805;SDS011;65084;42.196;25.326;2023-02-13T04:16:22;70.25;;;27.20;;
34805;SDS011;65084;42.196;25.326;2023-02-13T04:18:53;80.47;;;28.35;;
34805;SDS011;65084;42.196;25.326;2023-02-13T04:21:22;92.35;;;31.67;;
34805;SDS011;65084;42.196;25.326;2023-02-13T04:23:50;99.55;;;33.80;;
34805;SDS011;65084;42.196;25.326;2023-02-13T04:26:20;106.18;;;36.10;;
34805;SDS011;65084;42.196;25.326;2023-02-13T04:28:47;102.13;;;34.35;;
34805;SDS011;65084;42.196;25.326;2023-02-13T04:31:15;91.63;;;35.83;;
34805;SDS011;65084;42.196;25.326;2023-02-13T04:33:42;80.97;;;32.75;;
34805;SDS011;65084;42.196;25.326;2023-02-13T04:36:09;56.67;;;24.52;;
34805;SDS011;65084;42.196;25.326;2023-02-13T04:38:37;47.83;;;21.42;;
34805;SDS011;65084;42.196;25.326;2023-02-13T04:41:04;43.15;;;20.65;;
34805;SDS011;65084;42.196;25.326;2023-02-13T04:43:33;53.50;;;24.20;;
34805;SDS011;65084;42.196;25.326;2023-02-13T04:46:00;74.30;;;27.33;;
34805;SDS011;65084;42.196;25.326;2023-02-13T04:48:27;53.45;;;24.50;;
34805;SDS011;65084;42.196;25.326;2023-02-13T04:50:55;56.28;;;25.70;;
34805;SDS011;65084;42.196;25.326;2023-02-13T04:53:22;53.58;;;25.17;;
34805;SDS011;65084;42.196;25.326;2023-02-13T04:55:50;68.68;;;28.77;;
34805;SDS011;65084;42.196;25.326;2023-02-13T04:58:17;71.68;;;33.28;;
34805;SDS011;65084;42.196;25.326;2023-02-13T05:00:46;75.28;;;32.20;;
34805;SDS011;65084;42.196;25.326;2023-02-13T05:03:13;83.07;;;32.58;;
34805;SDS011;65084;42.196;25.326;2023-02-13T05:05:40;77.30;;;32.38;;
34805;SDS011;65084;42.196;25.326;2023-02-13T05:08:08;83.63;;;35.38;;
34805;SDS011;65084;42.196;25.326;2023-02-13T05:10:36;95.15;;;36.15;;
34805;SDS011;65084;42.196;25.326;2023-02-13T05:13:03;75.00;;;32.67;;
34805;SDS011;65084;42.196;25.326;2023-02-13T05:15:30;84.15;;;33.47;;
34805;SDS011;65084;42.196;25.326;2023-02-13T05:17:59;85.05;;;38.28;;
34805;SDS011;65084;42.196;25.326;2023-02-13T05:20:26;120.30;;;57.28;;
34805;SDS011;65084;42.196;25.326;2023-02-13T05:22:53;117.60;;;58.78;;
34805;SDS011;65084;42.196;25.326;2023-02-13T05:25:39;108.97;;;50.78;;
34805;SDS011;65084;42.196;25.326;2023-02-13T05:28:06;101.15;;;45.63;;
34805;SDS011;65084;42.196;25.326;2023-02-13T05:30:54;86.53;;;37.72;;
34805;SDS011;65084;42.196;25.326;2023-02-13T05:33:22;87.15;;;34.50;;
34805;SDS011;65084;42.196;25.326;2023-02-13T05:35:49;76.40;;;31.15;;
34805;SDS011;65084;42.196;25.326;2023-02-13T05:38:16;61.60;;;27.75;;
34805;SDS011;65084;42.196;25.326;2023-02-13T05:40:44;67.00;;;27.75;;
34805;SDS011;65084;42.196;25.326;2023-02-13T05:43:11;73.07;;;27.05;;
34805;SDS011;65084;42.196;25.326;2023-02-13T05:45:38;59.15;;;25.77;;
34805;SDS011;65084;42.196;25.326;2023-02-13T05:48:05;77.63;;;28.92;;
34805;SDS011;65084;42.196;25.326;2023-02-13T05:50:34;70.22;;;30.67;;
34805;SDS011;65084;42.196;25.326;2023-02-13T05:53:01;72.75;;;31.20;;
34805;SDS011;65084;42.196;25.326;2023-02-13T05:55:29;71.20;;;30.70;;
34805;SDS011;65084;42.196;25.326;2023-02-13T05:57:56;78.38;;;30.08;;
34805;SDS011;65084;42.196;25.326;2023-02-13T06:00:23;84.85;;;31.55;;
34805;SDS011;65084;42.196;25.326;2023-02-13T06:02:51;67.88;;;29.52;;
34805;SDS011;65084;42.196;25.326;2023-02-13T06:05:18;91.43;;;30.10;;
34805;SDS011;65084;42.196;25.326;2023-02-13T06:07:47;89.60;;;33.58;;
34805;SDS011;65084;42.196;25.326;2023-02-13T06:10:14;84.70;;;31.30;;
34805;SDS011;65084;42.196;25.326;2023-02-13T06:12:41;80.20;;;33.25;;
34805;SDS011;65084;42.196;25.326;2023-02-13T06:15:09;94.80;;;35.40;;
34805;SDS011;65084;42.196;25.326;2023-02-13T06:17:36;80.00;;;33.13;;
34805;SDS011;65084;42.196;25.326;2023-02-13T06:20:04;81.97;;;32.78;;
34805;SDS011;65084;42.196;25.326;2023-02-13T06:22:32;91.38;;;36.88;;
34805;SDS011;65084;42.196;25.326;2023-02-13T06:25:00;96.93;;;39.42;;
34805;SDS011;65084;42.196;25.326;2023-02-13T06:27:28;108.68;;;41.30;;
34805;SDS011;65084;42.196;25.326;2023-02-13T06:29:55;103.95;;;43.55;;
34805;SDS011;65084;42.196;25.326;2023-02-13T06:32:22;112.75;;;44.70;;
34805;SDS011;65084;42.196;25.326;2023-02-13T06:34:49;128.27;;;51.17;;
34805;SDS011;65084;42.196;25.326;2023-02-13T06:37:17;134.93;;;51.85;;
34805;SDS011;65084;42.196;25.326;2023-02-13T06:39:44;136.30;;;52.03;;
34805;SDS011;65084;42.196;25.326;2023-02-13T06:42:13;140.30;;;53.97;;
34805;SDS011;65084;42.196;25.326;2023-02-13T06:44:40;125.53;;;47.42;;
34805;SDS011;65084;42.196;25.326;2023-02-13T06:47:07;116.90;;;43.00;;
34805;SDS011;65084;42.196;25.326;2023-02-13T06:49:34;72.90;;;35.13;;
34805;SDS011;65084;42.196;25.326;2023-02-13T06:52:02;52.95;;;26.38;;
34805;SDS011;65084;42.196;25.326;2023-02-13T06:54:29;50.67;;;24.05;;
34805;SDS011;65084;42.196;25.326;2023-02-13T06:56:57;49.95;;;22.60;;
34805;SDS011;65084;42.196;25.326;2023-02-13T06:59:25;36.22;;;19.40;;
34805;SDS011;65084;42.196;25.326;2023-02-13T07:01:52;41.40;;;18.75;;
34805;SDS011;65084;42.196;25.326;2023-02-13T07:04:20;38.50;;;19.42;;
34805;SDS011;65084;42.196;25.326;2023-02-13T07:06:47;35.80;;;16.73;;
34805;SDS011;65084;42.196;25.326;2023-02-13T07:09:14;33.38;;;16.10;;
34805;SDS011;65084;42.196;25.326;2023-02-13T07:11:42;29.08;;;14.68;;
34805;SDS011;65084;42.196;25.326;2023-02-13T07:14:09;30.92;;;14.75;;
34805;SDS011;65084;42.196;25.326;2023-02-13T07:16:37;29.30;;;13.75;;
34805;SDS011;65084;42.196;25.326;2023-02-13T07:19:05;29.05;;;14.10;;
34805;SDS011;65084;42.196;25.326;2023-02-13T07:21:32;25.77;;;14.30;;
34805;SDS011;65084;42.196;25.326;2023-02-13T07:24:00;21.40;;;13.10;;
34805;SDS011;65084;42.196;25.326;2023-02-13T07:26:27;29.83;;;13.13;;
34805;SDS011;65084;42.196;25.326;2023-02-13T07:28:55;24.92;;;10.65;;
34805;SDS011;65084;42.196;25.326;2023-02-13T07:31:22;17.77;;;8.88;;
34805;SDS011;65084;42.196;25.326;2023-02-13T07:33:51;19.75;;;9.23;;
34805;SDS011;65084;42.196;25.326;2023-02-13T07:36:18;13.88;;;8.15;;
34805;SDS011;65084;42.196;25.326;2023-02-13T07:38:45;19.50;;;9.60;;
34805;SDS011;65084;42.196;25.326;2023-02-13T07:41:12;14.60;;;8.02;;
34805;SDS011;65084;42.196;25.326;2023-02-13T07:43:40;14.88;;;8.30;;
34805;SDS011;65084;42.196;25.326;2023-02-13T07:46:07;13.25;;;7.85;;
34805;SDS011;65084;42.196;25.326;2023-02-13T07:48:35;13.45;;;7.35;;
34805;SDS011;65084;42.196;25.326;2023-02-13T07:51:04;12.65;;;7.55;;
34805;SDS011;65084;42.196;25.326;2023-02-13T07:53:31;12.45;;;6.93;;
34805;SDS011;65084;42.196;25.326;2023-02-13T07:55:58;12.30;;;7.03;;
34805;SDS011;65084;42.196;25.326;2023-02-13T07:58:26;12.25;;;7.13;;
34805;SDS011;65084;42.196;25.326;2023-02-13T08:00:53;14.00;;;8.57;;
34805;SDS011;65084;42.196;25.326;2023-02-13T08:03:20;14.70;;;7.63;;
34805;SDS011;65084;42.196;25.326;2023-02-13T08:05:48;13.23;;;7.30;;
34805;SDS011;65084;42.196;25.326;2023-02-13T08:08:16;13.05;;;7.70;;
34805;SDS011;65084;42.196;25.326;2023-02-13T08:10:43;12.68;;;7.47;;
34805;SDS011;65084;42.196;25.326;2023-02-13T08:13:28;12.90;;;8.48;;
34805;SDS011;65084;42.196;25.326;2023-02-13T08:15:56;15.80;;;9.05;;
34805;SDS011;65084;42.196;25.326;2023-02-13T08:18:23;14.48;;;9.63;;
34805;SDS011;65084;42.196;25.326;2023-02-13T08:20:50;13.40;;;8.52;;
34805;SDS011;65084;42.196;25.326;2023-02-13T08:23:19;22.15;;;12.30;;
34805;SDS011;65084;42.196;25.326;2023-02-13T08:25:46;16.58;;;10.40;;
34805;SDS011;65084;42.196;25.326;2023-02-13T08:28:14;21.45;;;12.60;;
34805;SDS011;65084;42.196;25.326;2023-02-13T08:30:41;23.08;;;11.77;;
34805;SDS011;65084;42.196;25.326;2023-02-13T08:33:08;12.30;;;9.35;;
34805;SDS011;65084;42.196;25.326;2023-02-13T08:35:36;12.95;;;9.43;;
34805;SDS011;65084;42.196;25.326;2023-02-13T08:38:03;17.40;;;10.20;;
34805;SDS011;65084;42.196;25.326;2023-02-13T08:40:32;16.15;;;10.77;;
34805;SDS011;65084;42.196;25.326;2023-02-13T08:42:59;22.17;;;10.32;;
34805;SDS011;65084;42.196;25.326;2023-02-13T08:45:27;18.38;;;10.50;;
34805;SDS011;65084;42.196;25.326;2023-02-13T08:47:55;12.15;;;9.07;;
34805;SDS011;65084;42.196;25.326;2023-02-13T08:50:22;16.50;;;9.90;;
34805;SDS011;65084;42.196;25.326;2023-02-13T08:52:50;13.68;;;9.82;;
34805;SDS011;65084;42.196;25.326;2023-02-13T08:55:17;13.52;;;9.15;;
34805;SDS011;65084;42.196;25.326;2023-02-13T08:57:46;11.57;;;7.80;;
34805;SDS011;65084;42.196;25.326;2023-02-13T09:00:14;11.70;;;7.78;;
34805;SDS011;65084;42.196;25.326;2023-02-13T09:02:41;16.98;;;9.25;;
34805;SDS011;65084;42.196;25.326;2023-02-13T09:05:10;27.00;;;13.98;;
34805;SDS011;65084;42.196;25.326;2023-02-13T09:07:37;17.15;;;9.57;;
34805;SDS011;65084;42.196;25.326;2023-02-13T09:10:05;16.55;;;10.52;;
34805;SDS011;65084;42.196;25.326;2023-02-13T09:12:32;11.93;;;8.25;;
34805;SDS011;65084;42.196;25.326;2023-02-13T09:15:01;16.55;;;8.73;;
34805;SDS011;65084;42.196;25.326;2023-02-13T09:17:28;17.73;;;9.55;;
34805;SDS011;65084;42.196;25.326;2023-02-13T09:19:56;10.45;;;8.45;;
34805;SDS011;65084;42.196;25.326;2023-02-13T09:22:23;9.68;;;7.10;;
34805;SDS011;65084;42.196;25.326;2023-02-13T09:24:50;12.45;;;8.10;;
34805;SDS011;65084;42.196;25.326;2023-02-13T09:27:18;12.80;;;8.65;;
34805;SDS011;65084;42.196;25.326;2023-02-13T09:29:45;33.63;;;18.42;;
34805;SDS011;65084;42.196;25.326;2023-02-13T09:32:14;15.60;;;10.35;;
34805;SDS011;65084;42.196;25.326;2023-02-13T09:34:42;14.07;;;8.95;;
34805;SDS011;65084;42.196;25.326;2023-02-13T09:37:09;16.15;;;9.32;;
34805;SDS011;65084;42.196;25.326;2023-02-13T09:39:37;16.52;;;10.13;;
34805;SDS011;65084;42.196;25.326;2023-02-13T09:42:04;15.27;;;10.02;;
34805;SDS011;65084;42.196;25.326;2023-02-13T09:44:33;13.88;;;9.45;;
34805;SDS011;65084;42.196;25.326;2023-02-13T09:47:03;17.10;;;9.85;;
34805;SDS011;65084;42.196;25.326;2023-02-13T09:49:34;13.52;;;9.32;;
34805;SDS011;65084;42.196;25.326;2023-02-13T09:52:03;13.35;;;9.05;;
34805;SDS011;65084;42.196;25.326;2023-02-13T09:54:30;19.88;;;12.43;;
34805;SDS011;65084;42.196;25.326;2023-02-13T09:56:58;17.95;;;10.63;;
34805;SDS011;65084;42.196;25.326;2023-02-13T09:59:31;16.95;;;9.82;;
34805;SDS011;65084;42.196;25.326;2023-02-13T10:02:01;14.50;;;9.95;;
34805;SDS011;65084;42.196;25.326;2023-02-13T10:04:31;15.20;;;10.02;;
34805;SDS011;65084;42.196;25.326;2023-02-13T10:07:11;27.42;;;16.88;;
34805;SDS011;65084;42.196;25.326;2023-02-13T10:09:45;27.27;;;13.93;;
34805;SDS011;65084;42.196;25.326;2023-02-13T10:12:18;22.60;;;13.52;;
34805;SDS011;65084;42.196;25.326;2023-02-13T10:14:51;18.50;;;12.43;;
34805;SDS011;65084;42.196;25.326;2023-02-13T10:17:22;15.35;;;10.82;;
34805;SDS011;65084;42.196;25.326;2023-02-13T10:19:50;18.30;;;11.68;;
34805;SDS011;65084;42.196;25.326;2023-02-13T10:22:23;22.83;;;13.10;;
34805;SDS011;65084;42.196;25.326;2023-02-13T10:24:53;17.10;;;11.63;;
34805;SDS011;65084;42.196;25.326;2023-02-13T10:27:24;16.95;;;11.25;;
34805;SDS011;65084;42.196;25.326;2023-02-13T10:30:08;28.58;;;15.85;;
34805;SDS011;65084;42.196;25.326;2023-02-13T10:33:00;35.60;;;19.33;;
34805;SDS011;65084;42.196;25.326;2023-02-13T10:35:49;54.80;;;26.58;;
34805;SDS011;65084;42.196;25.326;2023-02-13T10:38:20;22.58;;;13.07;;
34805;SDS011;65084;42.196;25.326;2023-02-13T10:40:56;20.48;;;12.00;;
34805;SDS011;65084;42.196;25.326;2023-02-13T10:43:26;14.23;;;10.50;;
34805;SDS011;65084;42.196;25.326;2023-02-13T10:45:56;18.05;;;11.80;;
34805;SDS011;65084;42.196;25.326;2023-02-13T10:48:28;19.58;;;13.30;;
34805;SDS011;65084;42.196;25.326;2023-02-13T10:51:02;20.20;;;12.07;;
34805;SDS011;65084;42.196;25.326;2023-02-13T10:53:40;23.48;;;14.13;;
34805;SDS011;65084;42.196;25.326;2023-02-13T10:56:14;23.42;;;13.60;;
34805;SDS011;65084;42.196;25.326;2023-02-13T10:58:49;20.80;;;13.23;;
34805;SDS011;65084;42.196;25.326;2023-02-13T11:01:23;21.13;;;14.02;;
34805;SDS011;65084;42.196;25.326;2023-02-13T11:04:00;23.40;;;15.13;;
34805;SDS011;65084;42.196;25.326;2023-02-13T11:06:33;26.55;;;15.45;;
34805;SDS011;65084;42.196;25.326;2023-02-13T11:09:05;25.95;;;15.02;;
34805;SDS011;65084;42.196;25.326;2023-02-13T11:11:34;24.88;;;15.35;;
34805;SDS011;65084;42.196;25.326;2023-02-13T11:14:09;24.88;;;15.57;;
34805;SDS011;65084;42.196;25.326;2023-02-13T11:19:45;20.60;;;14.18;;
34805;SDS011;65084;42.196;25.326;2023-02-13T11:22:25;23.00;;;13.73;;
34805;SDS011;65084;42.196;25.326;2023-02-13T11:24:58;26.70;;;16.33;;
34805;SDS011;65084;42.196;25.326;2023-02-13T11:27:27;20.17;;;13.55;;
34805;SDS011;65084;42.196;25.326;2023-02-13T11:29:56;24.80;;;14.13;;
34805;SDS011;65084;42.196;25.326;2023-02-13T11:32:26;21.98;;;15.27;;
34805;SDS011;65084;42.196;25.326;2023-02-13T11:34:59;26.33;;;17.38;;
34805;SDS011;65084;42.196;25.326;2023-02-13T11:38:11;23.67;;;16.17;;
34805;SDS011;65084;42.196;25.326;2023-02-13T11:40:42;30.35;;;18.45;;
34805;SDS011;65084;42.196;25.326;2023-02-13T11:43:26;24.65;;;15.10;;
34805;SDS011;65084;42.196;25.326;2023-02-13T11:46:02;25.15;;;16.25;;
34805;SDS011;65084;42.196;25.326;2023-02-13T11:48:29;27.00;;;16.48;;
34805;SDS011;65084;42.196;25.326;2023-02-13T11:50:57;24.17;;;15.10;;
34805;SDS011;65084;42.196;25.326;2023-02-13T11:53:26;22.65;;;16.90;;
34805;SDS011;65084;42.196;25.326;2023-02-13T11:56:02;25.60;;;16.15;;
34805;SDS011;65084;42.196;25.326;2023-02-13T11:58:30;28.48;;;17.02;;
34805;SDS011;65084;42.196;25.326;2023-02-13T12:01:08;28.13;;;15.10;;
34805;SDS011;65084;42.196;25.326;2023-02-13T12:03:35;21.95;;;14.82;;
34805;SDS011;65084;42.196;25.326;2023-02-13T12:06:04;23.50;;;16.02;;
34805;SDS011;65084;42.196;25.326;2023-02-13T12:08:35;22.92;;;16.42;;
34805;SDS011;65084;42.196;25.326;2023-02-13T12:11:06;40.17;;;16.88;;
34805;SDS011;65084;42.196;25.326;2023-02-13T12:13:41;26.83;;;17.88;;
34805;SDS011;65084;42.196;25.326;2023-02-13T12:16:09;29.13;;;17.33;;
34805;SDS011;65084;42.196;25.326;2023-02-13T12:18:38;29.33;;;18.33;;
34805;SDS011;65084;42.196;25.326;2023-02-13T12:21:09;26.02;;;17.20;;
34805;SDS011;65084;42.196;25.326;2023-02-13T12:23:41;27.05;;;18.17;;
34805;SDS011;65084;42.196;25.326;2023-02-13T12:26:16;27.33;;;18.00;;
34805;SDS011;65084;42.196;25.326;2023-02-13T12:28:47;32.50;;;18.08;;
34805;SDS011;65084;42.196;25.326;2023-02-13T12:31:30;30.13;;;19.52;;
34805;SDS011;65084;42.196;25.326;2023-02-13T12:37:01;26.75;;;17.77;;
34805;SDS011;65084;42.196;25.326;2023-02-13T12:39:32;30.25;;;19.30;;
34805;SDS011;65084;42.196;25.326;2023-02-13T12:42:15;29.48;;;19.17;;
34805;SDS011;65084;42.196;25.326;2023-02-13T12:44:58;38.70;;;22.83;;
34805;SDS011;65084;42.196;25.326;2023-02-13T12:47:29;24.30;;;16.67;;
34805;SDS011;65084;42.196;25.326;2023-02-13T12:52:51;26.52;;;15.90;;
34805;SDS011;65084;42.196;25.326;2023-02-13T12:55:39;27.92;;;18.67;;
34805;SDS011;65084;42.196;25.326;2023-02-13T17:00:26;103.50;;;44.97;;
34805;SDS011;65084;42.196;25.326;2023-02-13T17:02:53;112.18;;;48.90;;
34805;SDS011;65084;42.196;25.326;2023-02-13T17:05:21;109.38;;;48.42;;
34805;SDS011;65084;42.196;25.326;2023-02-13T17:07:49;121.07;;;52.70;;
34805;SDS011;65084;42.196;25.326;2023-02-13T17:10:18;119.45;;;53.00;;
34805;SDS011;65084;42.196;25.326;2023-02-13T17:12:46;126.97;;;52.75;;
34805;SDS011;65084;42.196;25.326;2023-02-13T17:15:14;176.32;;;73.00;;
34805;SDS011;65084;42.196;25.326;2023-02-13T17:17:43;161.55;;;74.18;;
34805;SDS011;65084;42.196;25.326;2023-02-13T17:20:13;169.65;;;81.53;;
34805;SDS011;65084;42.196;25.326;2023-02-13T17:22:41;200.02;;;92.97;;
34805;SDS011;65084;42.196;25.326;2023-02-13T17:25:13;202.98;;;94.63;;
34805;SDS011;65084;42.196;25.326;2023-02-13T17:27:41;197.30;;;97.55;;
34805;SDS011;65084;42.196;25.326;2023-02-13T17:30:11;203.38;;;97.57;;
34805;SDS011;65084;42.196;25.326;2023-02-13T17:32:38;200.20;;;94.38;;
34805;SDS011;65084;42.196;25.326;2023-02-13T17:35:08;191.90;;;89.25;;
34805;SDS011;65084;42.196;25.326;2023-02-13T17:37:35;176.32;;;85.68;;
34805;SDS011;65084;42.196;25.326;2023-02-13T17:40:03;171.23;;;80.45;;
34805;SDS011;65084;42.196;25.326;2023-02-13T17:42:31;175.88;;;80.90;;
34805;SDS011;65084;42.196;25.326;2023-02-13T17:44:58;199.68;;;87.07;;
34805;SDS011;65084;42.196;25.326;2023-02-13T17:47:25;232.32;;;89.18;;
34805;SDS011;65084;42.196;25.326;2023-02-13T17:49:54;294.80;;;109.57;;
34805;SDS011;65084;42.196;25.326;2023-02-13T17:52:23;260.65;;;110.85;;
34805;SDS011;65084;42.196;25.326;2023-02-13T17:54:51;242.95;;;105.18;;
34805;SDS011;65084;42.196;25.326;2023-02-13T17:57:18;227.02;;;95.43;;
34805;SDS011;65084;42.196;25.326;2023-02-13T17:59:46;208.10;;;95.03;;
34805;SDS011;65084;42.196;25.326;2023-02-13T18:02:14;199.45;;;92.82;;
34805;SDS011;65084;42.196;25.326;2023-02-13T18:04:42;201.65;;;89.60;;
34805;SDS011;65084;42.196;25.326;2023-02-13T18:07:10;187.00;;;83.10;;
34805;SDS011;65084;42.196;25.326;2023-02-13T18:09:39;159.00;;;76.85;;
34805;SDS011;65084;42.196;25.326;2023-02-13T18:12:08;166.52;;;78.80;;
34805;SDS011;65084;42.196;25.326;2023-02-13T18:14:37;148.18;;;73.22;;
34805;SDS011;65084;42.196;25.326;2023-02-13T18:17:04;146.52;;;68.35;;
34805;SDS011;65084;42.196;25.326;2023-02-13T18:19:32;169.93;;;73.40;;
34805;SDS011;65084;42.196;25.326;2023-02-13T18:21:59;152.95;;;70.68;;
34805;SDS011;65084;42.196;25.326;2023-02-13T18:24:27;149.55;;;66.07;;
34805;SDS011;65084;42.196;25.326;2023-02-13T18:26:56;157.20;;;63.78;;
34805;SDS011;65084;42.196;25.326;2023-02-13T18:29:23;139.77;;;60.40;;
34805;SDS011;65084;42.196;25.326;2023-02-13T18:31:51;116.80;;;58.17;;
34805;SDS011;65084;42.196;25.326;2023-02-13T18:34:18;127.97;;;58.25;;
34805;SDS011;65084;42.196;25.326;2023-02-13T18:36:46;114.70;;;52.28;;
34805;SDS011;65084;42.196;25.326;2023-02-13T18:39:13;117.03;;;51.22;;